Time;durP1;ratioP1;P1;durP2;ratioP2;P2;SDS_P1;SDS_P2;PMS_P1;PMS_P2;Temp;Humidity;BMP_temperature;BMP_pressure;BME280_temperature;BME280_humidity;BME280_pressure;Samples;Min_cycle;Max_cycle;Signal;HPM_P1;HPM_P2
2024/03/18 00:01:15;;;;;;;56.88;52.15;;;;;;;;;;4996959;28;20026;-91
2024/03/18 00:03:41;;;;;;;55.72;50.72;;;;;;;;;;4996844;28;20030;-90
2024/03/18 00:06:10;;;;;;;56.35;51.88;;;;;;;;;;4997628;28;20129;-91
2024/03/18 00:08:46;;;;;;;52.25;47.88;;;;;;;;;;4993768;28;20062;-92
2024/03/18 00:11:12;;;;;;;53.85;49.38;;;;;;;;;;4979024;28;20129;-91
2024/03/18 00:13:41;;;;;;;65.07;60.03;;;;;;;;;;4998466;28;20014;-91
2024/03/18 00:16:08;;;;;;;71.15;65.68;;;;;;;;;;5012715;28;20117;-92
2024/03/18 00:18:37;;;;;;;69.93;64.70;;;;;;;;;;4997267;28;20030;-91
2024/03/18 00:21:03;;;;;;;71.25;65.85;;;;;;;;;;5078958;23;20500;-91
2024/03/18 00:23:29;;;;;;;70.60;65.32;;;;;;;;;;4958238;28;20073;-91
2024/03/18 00:26:00;;;;;;;70.40;65.18;;;;;;;;;;4958111;28;20027;-91
2024/03/18 00:28:34;;;;;;;69.15;63.95;;;;;;;;;;4975370;28;20010;-91
2024/03/18 00:31:00;;;;;;;72.97;67.68;;;;;;;;;;4989050;28;20031;-90
2024/03/18 00:33:26;;;;;;;71.03;65.63;;;;;;;;;;4977820;28;20038;-91
2024/03/18 00:36:01;;;;;;;72.32;66.75;;;;;;;;;;4977367;28;20479;-91
2024/03/18 00:38:41;;;;;;;67.55;62.17;;;;;;;;;;4977288;28;20035;-91
2024/03/18 00:43:58;;;;;;;71.35;65.80;;;;;;;;;;4978087;28;20154;-91
2024/03/18 00:46:25;;;;;;;72.45;67.05;;;;;;;;;;4973666;28;20035;-91
2024/03/18 00:49:01;;;;;;;68.80;63.20;;;;;;;;;;4991385;28;20053;-92
2024/03/18 00:51:34;;;;;;;69.00;63.60;;;;;;;;;;4977129;28;20030;-91
2024/03/18 00:54:00;;;;;;;65.88;60.75;;;;;;;;;;4976941;28;20037;-91
2024/03/18 00:56:27;;;;;;;59.28;54.20;;;;;;;;;;4976895;28;20081;-91
2024/03/18 00:58:56;;;;;;;55.97;51.33;;;;;;;;;;4978269;28;20034;-91
2024/03/18 01:01:23;;;;;;;56.80;52.08;;;;;;;;;;4970058;28;20400;-90
2024/03/18 01:04:00;;;;;;;44.85;40.33;;;;;;;;;;4961100;28;20101;-90
2024/03/18 01:06:37;;;;;;;50.50;46.20;;;;;;;;;;4961164;28;20027;-89
2024/03/18 01:09:07;;;;;;;45.40;41.13;;;;;;;;;;4976312;28;20027;-90
2024/03/18 01:11:36;;;;;;;39.05;35.20;;;;;;;;;;4980803;28;20027;-90
2024/03/18 01:14:05;;;;;;;35.78;32.38;;;;;;;;;;4978124;28;20039;-90
2024/03/18 01:16:31;;;;;;;37.42;33.88;;;;;;;;;;4962101;28;20441;-90
2024/03/18 01:19:01;;;;;;;36.65;33.42;;;;;;;;;;4961355;28;20031;-90
2024/03/18 01:21:28;;;;;;;35.13;30.40;;;;;;;;;;4954503;28;20051;-91
2024/03/18 01:23:54;;;;;;;28.20;24.88;;;;;;;;;;4941895;29;20019;-90
2024/03/18 01:26:23;;;;;;;26.73;18.95;;;;;;;;;;4941828;29;20121;-92
2024/03/18 01:28:49;;;;;;;23.83;19.63;;;;;;;;;;4941588;29;20019;-90
2024/03/18 01:31:18;;;;;;;35.60;26.13;;;;;;;;;;4941930;29;20031;-91
2024/03/18 01:33:44;;;;;;;36.50;25.40;;;;;;;;;;4952218;28;20104;-90
2024/03/18 01:36:11;;;;;;;37.90;26.02;;;;;;;;;;4960912;28;20035;-90
2024/03/18 01:38:37;;;;;;;44.03;27.40;;;;;;;;;;4960876;28;20033;-92
2024/03/18 01:41:03;;;;;;;32.22;22.05;;;;;;;;;;4960230;28;20165;-91
2024/03/18 01:43:36;;;;;;;51.45;28.77;;;;;;;;;;4960335;28;20031;-91
2024/03/18 01:46:05;;;;;;;48.05;29.02;;;;;;;;;;4960213;28;20069;-91
2024/03/18 01:48:37;;;;;;;46.85;27.38;;;;;;;;;;4960929;28;20154;-91
2024/03/18 01:51:06;;;;;;;48.30;30.73;;;;;;;;;;4960665;28;20117;-90
2024/03/18 01:53:35;;;;;;;46.90;31.83;;;;;;;;;;4960841;28;20026;-91
2024/03/18 01:56:01;;;;;;;46.25;27.85;;;;;;;;;;4964976;28;20039;-90
2024/03/18 01:58:27;;;;;;;41.53;28.17;;;;;;;;;;4972131;28;20045;-91
2024/03/18 02:01:14;;;;;;;44.35;28.20;;;;;;;;;;4981704;28;20086;-90
2024/03/18 02:03:40;;;;;;;48.95;30.70;;;;;;;;;;4960256;28;20090;-91
2024/03/18 02:06:06;;;;;;;34.85;22.25;;;;;;;;;;4960146;28;20031;-90
2024/03/18 02:08:38;;;;;;;32.08;22.05;;;;;;;;;;4957694;28;20023;-89
2024/03/18 02:11:05;;;;;;;38.33;24.90;;;;;;;;;;4940971;29;20054;-90
2024/03/18 02:13:34;;;;;;;34.42;22.80;;;;;;;;;;4941212;29;20480;-90
2024/03/18 02:16:06;;;;;;;40.55;27.17;;;;;;;;;;4946433;28;20042;-91
2024/03/18 02:18:32;;;;;;;37.97;25.98;;;;;;;;;;4960494;28;20181;-91
2024/03/18 02:21:06;;;;;;;42.03;28.42;;;;;;;;;;4959862;28;20027;-90
2024/03/18 02:23:35;;;;;;;48.47;30.83;;;;;;;;;;4960002;28;20033;-91
2024/03/18 02:26:01;;;;;;;42.67;29.08;;;;;;;;;;4960358;28;20468;-90
2024/03/18 02:28:27;;;;;;;38.10;23.30;;;;;;;;;;4959848;28;20031;-91
2024/03/18 02:30:54;;;;;;;45.22;29.73;;;;;;;;;;4959556;28;20031;-90
2024/03/18 02:33:35;;;;;;;45.40;29.35;;;;;;;;;;4959816;28;20033;-90
2024/03/18 02:36:04;;;;;;;44.65;32.75;;;;;;;;;;4959401;28;20053;-91
2024/03/18 02:38:38;;;;;;;40.63;30.75;;;;;;;;;;4953021;29;20385;-91
2024/03/18 02:41:04;;;;;;;46.17;34.75;;;;;;;;;;4940609;29;20050;-90
2024/03/18 02:43:30;;;;;;;38.67;26.88;;;;;;;;;;4954403;28;20030;-91
2024/03/18 02:45:57;;;;;;;39.67;30.92;;;;;;;;;;4942097;29;20035;-90
2024/03/18 02:48:24;;;;;;;46.35;30.58;;;;;;;;;;4940518;29;20392;-91
2024/03/18 02:50:53;;;;;;;40.17;28.00;;;;;;;;;;4940285;29;20023;-90
2024/03/18 02:53:27;;;;;;;40.63;27.77;;;;;;;;;;4940174;29;20027;-90
2024/03/18 02:55:54;;;;;;;37.85;30.65;;;;;;;;;;4939976;29;20047;-90
2024/03/18 02:58:20;;;;;;;40.92;30.50;;;;;;;;;;4940078;29;20043;-90
2024/03/18 03:00:46;;;;;;;42.42;29.95;;;;;;;;;;4940027;29;20023;-91
2024/03/18 03:03:19;;;;;;;42.80;36.97;;;;;;;;;;4955973;28;20059;-89
2024/03/18 03:05:48;;;;;;;45.08;38.03;;;;;;;;;;4940038;29;20457;-91
2024/03/18 03:08:16;;;;;;;48.33;39.88;;;;;;;;;;4940048;29;20035;-90
2024/03/18 03:10:42;;;;;;;41.22;36.97;;;;;;;;;;4939638;29;20023;-91
2024/03/18 03:13:12;;;;;;;45.10;40.35;;;;;;;;;;4939888;29;20035;-92
2024/03/18 03:15:38;;;;;;;42.03;35.03;;;;;;;;;;4939502;29;20042;-91
2024/03/18 03:18:07;;;;;;;39.15;30.95;;;;;;;;;;4939875;29;20034;-92
2024/03/18 03:20:35;;;;;;;46.33;37.40;;;;;;;;;;4940034;29;20047;-91
2024/03/18 03:23:08;;;;;;;36.30;32.70;;;;;;;;;;4939859;29;20051;-89
2024/03/18 03:25:39;;;;;;;46.08;41.75;;;;;;;;;;4939956;29;20170;-90
2024/03/18 03:28:05;;;;;;;45.17;40.70;;;;;;;;;;4952395;28;20031;-90
2024/03/18 03:30:35;;;;;;;48.63;43.85;;;;;;;;;;4958709;28;20479;-90
2024/03/18 03:33:04;;;;;;;48.40;43.28;;;;;;;;;;4936783;29;20034;-90
2024/03/18 03:35:33;;;;;;;41.40;37.65;;;;;;;;;;4936274;29;20087;-90
2024/03/18 03:38:05;;;;;;;35.22;31.80;;;;;;;;;;4936888;29;20031;-90
2024/03/18 03:40:32;;;;;;;40.22;35.47;;;;;;;;;;4934903;29;20500;-90
2024/03/18 03:42:58;;;;;;;38.53;33.95;;;;;;;;;;4952585;28;20020;-89
2024/03/18 03:45:42;;;;;;;35.00;31.02;;;;;;;;;;4969681;28;20041;-92
2024/03/18 03:48:08;;;;;;;38.60;34.80;;;;;;;;;;4972777;28;20035;-92
2024/03/18 03:50:34;;;;;;;38.13;34.05;;;;;;;;;;4961810;28;20026;-90
2024/03/18 03:53:12;;;;;;;33.72;29.98;;;;;;;;;;4959777;28;20054;-91
2024/03/18 03:55:39;;;;;;;39.55;35.30;;;;;;;;;;4958440;28;20027;-90
2024/03/18 03:58:08;;;;;;;32.28;25.30;;;;;;;;;;4958446;28;20487;-91
2024/03/18 04:00:37;;;;;;;26.95;24.15;;;;;;;;;;4958257;28;20033;-91
2024/03/18 04:03:12;;;;;;;36.30;32.63;;;;;;;;;;4957998;28;20038;-91
2024/03/18 04:05:39;;;;;;;36.78;31.58;;;;;;;;;;4958275;28;20117;-90
2024/03/18 04:08:05;;;;;;;27.15;24.23;;;;;;;;;;4958268;28;20094;-96
2024/03/18 04:10:32;;;;;;;32.67;29.17;;;;;;;;;;4939254;29;20035;-89
2024/03/18 04:13:22;;;;;;;29.33;23.92;;;;;;;;;;4938369;29;20046;-90
2024/03/18 04:15:49;;;;;;;31.27;25.98;;;;;;;;;;4938737;29;20035;-91
2024/03/18 04:18:16;;;;;;;32.20;22.02;;;;;;;;;;4938826;29;20035;-91
2024/03/18 04:21:03;;;;;;;29.70;21.35;;;;;;;;;;4938846;29;20047;-90
2024/03/18 04:23:37;;;;;;;35.10;25.05;;;;;;;;;;4939062;29;20353;-91
2024/03/18 04:26:06;;;;;;;33.20;26.05;;;;;;;;;;4943404;28;20039;-91
2024/03/18 04:28:39;;;;;;;34.92;25.48;;;;;;;;;;4958063;28;20058;-91
2024/03/18 04:31:11;;;;;;;29.88;26.67;;;;;;;;;;4958529;28;20061;-91
2024/03/18 04:33:39;;;;;;;32.63;23.83;;;;;;;;;;4975582;28;20128;-92
2024/03/18 04:36:09;;;;;;;30.55;25.60;;;;;;;;;;4961898;28;20038;-90
2024/03/18 04:38:37;;;;;;;35.13;27.42;;;;;;;;;;4962047;28;20037;-92
2024/03/18 04:41:04;;;;;;;38.17;31.55;;;;;;;;;;4962080;28;20377;-91
2024/03/18 04:43:32;;;;;;;31.27;24.95;;;;;;;;;;4961584;28;20038;-91
2024/03/18 04:46:04;;;;;;;29.83;23.45;;;;;;;;;;4961714;28;20030;-90
2024/03/18 04:48:35;;;;;;;30.02;21.52;;;;;;;;;;4965139;28;20022;-89
2024/03/18 04:51:01;;;;;;;28.05;20.63;;;;;;;;;;4975769;28;20365;-90
2024/03/18 04:53:34;;;;;;;29.65;19.25;;;;;;;;;;4949436;29;20038;-90
2024/03/18 04:56:00;;;;;;;24.83;18.70;;;;;;;;;;4944779;29;20043;-91
2024/03/18 04:58:26;;;;;;;31.38;20.67;;;;;;;;;;4954651;28;20030;-92
2024/03/18 05:00:52;;;;;;;32.05;22.00;;;;;;;;;;4961567;28;20053;-92
2024/03/18 05:03:18;;;;;;;30.55;18.85;;;;;;;;;;4961832;28;20113;-91
2024/03/18 05:05:51;;;;;;;29.60;18.42;;;;;;;;;;4956296;29;20035;-91
2024/03/18 05:08:17;;;;;;;30.50;17.75;;;;;;;;;;4942059;29;20101;-90
2024/03/18 05:10:45;;;;;;;26.73;15.82;;;;;;;;;;4946088;28;20067;-92
2024/03/18 05:13:15;;;;;;;27.20;16.33;;;;;;;;;;4960459;28;20066;-92
2024/03/18 05:15:43;;;;;;;28.48;15.20;;;;;;;;;;4961394;28;20042;-91
2024/03/18 05:18:15;;;;;;;28.42;13.35;;;;;;;;;;4954923;29;20465;-90
2024/03/18 05:20:44;;;;;;;26.40;13.65;;;;;;;;;;4942497;29;20026;-90
2024/03/18 05:23:10;;;;;;;26.25;13.32;;;;;;;;;;4947172;29;20512;-91
2024/03/18 05:25:39;;;;;;;22.60;12.35;;;;;;;;;;4941920;29;20031;-91
2024/03/18 05:28:07;;;;;;;22.38;12.45;;;;;;;;;;4961185;28;20039;-93
2024/03/18 05:30:39;;;;;;;23.95;12.15;;;;;;;;;;4980177;28;20079;-91
2024/03/18 05:33:06;;;;;;;25.33;12.68;;;;;;;;;;4969562;28;20026;-91
2024/03/18 05:35:35;;;;;;;25.63;13.35;;;;;;;;;;4960549;28;20041;-92
2024/03/18 05:38:02;;;;;;;26.40;12.50;;;;;;;;;;4942181;29;20537;-91
2024/03/18 05:40:28;;;;;;;24.90;12.13;;;;;;;;;;4955672;28;20479;-93
2024/03/18 05:42:54;;;;;;;22.13;11.45;;;;;;;;;;4960884;28;20055;-93
2024/03/18 05:45:23;;;;;;;19.58;10.73;;;;;;;;;;4959781;28;20039;-93
2024/03/18 05:47:58;;;;;;;19.77;17.00;;;;;;;;;;4960456;28;20539;-94
2024/03/18 05:50:33;;;;;;;26.90;24.15;;;;;;;;;;4956720;29;20055;-93
2024/03/18 05:52:59;;;;;;;21.05;15.25;;;;;;;;;;4941825;28;20035;-94
2024/03/18 05:55:26;;;;;;;29.02;26.45;;;;;;;;;;4960374;28;20517;-94
2024/03/18 05:58:01;;;;;;;37.53;34.58;;;;;;;;;;4953698;29;20036;-92
2024/03/18 06:07:09;;;;;;;37.33;34.50;;;;;;;;;;4956764;29;20034;-91
2024/03/18 06:09:40;;;;;;;44.47;41.42;;;;;;;;;;4940925;29;20050;-94
2024/03/18 06:12:06;;;;;;;49.80;46.22;;;;;;;;;;4940703;29;20030;-95
2024/03/18 06:14:35;;;;;;;39.60;36.75;;;;;;;;;;4930514;29;20167;-93
2024/03/18 06:17:04;;;;;;;34.72;31.85;;;;;;;;;;4921555;29;20147;-92
2024/03/18 06:19:35;;;;;;;41.88;38.53;;;;;;;;;;4921303;29;20564;-93
2024/03/18 06:22:20;;;;;;;43.17;40.00;;;;;;;;;;4939514;29;20032;-92
2024/03/18 06:30:50;;;;;;;21.50;19.67;;;;;;;;;;4986924;28;20049;-93
2024/03/18 06:33:16;;;;;;;23.33;21.15;;;;;;;;;;4980517;28;20030;-94
2024/03/18 06:35:43;;;;;;;20.05;15.77;;;;;;;;;;4980047;28;20113;-92
2024/03/18 06:38:09;;;;;;;13.85;11.10;;;;;;;;;;4976955;28;20037;-92
2024/03/18 06:40:35;;;;;;;13.20;9.98;;;;;;;;;;4960035;28;20519;-93
2024/03/18 06:43:02;;;;;;;12.18;7.82;;;;;;;;;;4961656;28;20031;-92
2024/03/18 06:45:34;;;;;;;11.65;7.97;;;;;;;;;;4980503;28;20140;-92
2024/03/18 06:48:02;;;;;;;8.25;6.40;;;;;;;;;;4960150;28;20073;-90
2024/03/18 06:50:29;;;;;;;9.68;7.20;;;;;;;;;;4965444;28;20026;-92
2024/03/18 06:52:56;;;;;;;9.75;6.72;;;;;;;;;;4979850;28;20034;-91
2024/03/18 06:55:22;;;;;;;9.98;6.70;;;;;;;;;;4960595;28;20034;-91
2024/03/18 06:58:02;;;;;;;10.07;6.85;;;;;;;;;;4961256;28;20412;-91
2024/03/18 07:00:28;;;;;;;9.43;6.57;;;;;;;;;;4956267;28;20089;-91
2024/03/18 07:02:54;;;;;;;12.50;7.03;;;;;;;;;;4991327;28;20054;-90
2024/03/18 07:05:21;;;;;;;12.15;6.78;;;;;;;;;;4984032;28;20058;-92
2024/03/18 07:07:47;;;;;;;10.80;7.38;;;;;;;;;;4961751;28;20030;-93
2024/03/18 07:10:14;;;;;;;10.20;7.30;;;;;;;;;;4960284;28;20029;-90
2024/03/18 07:12:40;;;;;;;9.68;6.45;;;;;;;;;;4974079;28;20018;-92
2024/03/18 07:15:07;;;;;;;10.45;7.25;;;;;;;;;;4992437;28;20054;-90
2024/03/18 07:17:35;;;;;;;9.00;6.30;;;;;;;;;;4985724;28;20035;-92
2024/03/18 07:20:06;;;;;;;9.98;6.88;;;;;;;;;;4978548;28;20022;-91
2024/03/18 07:22:32;;;;;;;9.30;6.75;;;;;;;;;;4972788;28;20054;-92
2024/03/18 07:24:59;;;;;;;9.30;6.72;;;;;;;;;;4959302;28;20495;-92
2024/03/18 07:27:25;;;;;;;10.45;8.20;;;;;;;;;;4959348;28;20035;-92
2024/03/18 07:29:58;;;;;;;10.15;6.60;;;;;;;;;;4959220;28;20034;-92
2024/03/18 07:32:24;;;;;;;11.02;8.05;;;;;;;;;;4959095;28;20099;-91
2024/03/18 07:34:51;;;;;;;12.43;7.30;;;;;;;;;;4943599;28;20125;-90
2024/03/18 07:37:18;;;;;;;14.35;8.13;;;;;;;;;;4959033;28;20038;-91
2024/03/18 07:39:45;;;;;;;10.20;8.30;;;;;;;;;;4959009;28;20031;-91
2024/03/18 07:42:12;;;;;;;9.82;6.63;;;;;;;;;;4963486;28;20027;-91
2024/03/18 07:44:39;;;;;;;11.00;7.47;;;;;;;;;;4958814;28;20038;-92
2024/03/18 07:47:05;;;;;;;10.65;7.25;;;;;;;;;;4958570;28;20075;-91
2024/03/18 07:49:31;;;;;;;9.77;7.45;;;;;;;;;;4958853;28;20037;-91
2024/03/18 07:51:58;;;;;;;9.57;6.50;;;;;;;;;;4958927;28;20022;-91
2024/03/18 07:54:24;;;;;;;8.48;6.70;;;;;;;;;;4959125;28;20041;-90
2024/03/18 07:56:50;;;;;;;9.60;6.97;;;;;;;;;;4952227;29;20047;-91
2024/03/18 07:59:17;;;;;;;9.00;7.00;;;;;;;;;;4939910;29;20034;-94
2024/03/18 08:01:43;;;;;;;10.73;7.60;;;;;;;;;;4939677;29;20495;-92
2024/03/18 08:04:10;;;;;;;7.70;6.38;;;;;;;;;;4959551;29;20027;-89
2024/03/18 08:06:39;;;;;;;10.55;7.03;;;;;;;;;;4940245;29;20039;-89
2024/03/18 08:09:05;;;;;;;11.88;7.72;;;;;;;;;;4945185;28;20038;-89
2024/03/18 08:11:31;;;;;;;10.57;6.75;;;;;;;;;;4939511;29;20035;-92
2024/03/18 08:13:57;;;;;;;7.88;6.60;;;;;;;;;;4938278;29;20133;-89
2024/03/18 08:16:29;;;;;;;9.98;6.32;;;;;;;;;;4939220;28;20036;-92
2024/03/18 08:18:56;;;;;;;8.52;6.28;;;;;;;;;;4975504;28;20030;-91
2024/03/18 08:21:22;;;;;;;8.18;6.60;;;;;;;;;;4946214;29;20041;-91
2024/03/18 08:23:51;;;;;;;9.57;6.80;;;;;;;;;;4938938;29;20075;-91
2024/03/18 08:26:17;;;;;;;9.65;6.45;;;;;;;;;;4936685;29;20536;-90
2024/03/18 08:28:43;;;;;;;9.70;6.38;;;;;;;;;;4944393;29;20095;-91
2024/03/18 08:31:10;;;;;;;9.85;7.00;;;;;;;;;;4939049;29;20035;-91
2024/03/18 08:33:36;;;;;;;12.18;9.73;;;;;;;;;;4943527;28;20023;-90
2024/03/18 08:36:08;;;;;;;13.65;11.18;;;;;;;;;;4938814;29;20043;-90
2024/03/18 08:38:37;;;;;;;8.77;7.10;;;;;;;;;;4938066;29;20036;-90
2024/03/18 08:41:03;;;;;;;9.35;6.55;;;;;;;;;;4938120;29;20386;-92
2024/03/18 08:43:29;;;;;;;10.10;6.57;;;;;;;;;;4935340;29;20039;-91
2024/03/18 08:45:56;;;;;;;8.25;6.07;;;;;;;;;;4938244;29;20369;-89
2024/03/18 08:48:22;;;;;;;9.32;6.10;;;;;;;;;;4939959;28;20464;-91
2024/03/18 08:50:48;;;;;;;10.27;7.35;;;;;;;;;;4951320;29;20075;-91
2024/03/18 08:53:16;;;;;;;13.27;7.45;;;;;;;;;;4941384;28;20126;-91
2024/03/18 08:55:44;;;;;;;10.52;7.40;;;;;;;;;;4964615;28;20090;-93
2024/03/18 08:58:10;;;;;;;9.40;6.95;;;;;;;;;;4962667;28;20027;-92
2024/03/18 09:00:37;;;;;;;10.05;5.95;;;;;;;;;;4947854;29;20358;-92
2024/03/18 09:03:03;;;;;;;8.50;6.00;;;;;;;;;;4938932;29;20023;-91
2024/03/18 09:05:30;;;;;;;8.82;5.15;;;;;;;;;;4938695;29;20042;-92
2024/03/18 09:07:57;;;;;;;9.38;4.80;;;;;;;;;;4938500;29;20369;-91
2024/03/18 09:10:23;;;;;;;10.02;5.82;;;;;;;;;;4938745;29;20051;-91
2024/03/18 09:12:49;;;;;;;8.98;5.00;;;;;;;;;;4938507;29;20028;-89
2024/03/18 09:15:16;;;;;;;6.88;4.85;;;;;;;;;;4936266;29;20381;-88
2024/03/18 09:17:50;;;;;;;10.32;5.00;;;;;;;;;;4936808;29;20046;-94
2024/03/18 09:20:17;;;;;;;7.80;4.82;;;;;;;;;;4942603;28;20110;-94
2024/03/18 09:22:47;;;;;;;8.80;5.57;;;;;;;;;;4945008;28;20066;-93
2024/03/18 09:25:13;;;;;;;8.77;5.63;;;;;;;;;;4941960;29;20396;-93
2024/03/18 09:27:39;;;;;;;8.65;5.60;;;;;;;;;;4949103;29;20027;-94
2024/03/18 09:30:06;;;;;;;7.15;5.47;;;;;;;;;;4943069;29;20027;-94
2024/03/18 09:32:33;;;;;;;7.00;4.88;;;;;;;;;;4942489;29;20396;-91
2024/03/18 09:34:59;;;;;;;7.88;5.53;;;;;;;;;;4960500;28;20030;-94
2024/03/18 09:37:29;;;;;;;7.47;5.50;;;;;;;;;;4972083;28;20114;-91
2024/03/18 09:39:56;;;;;;;9.35;6.30;;;;;;;;;;4963494;28;20054;-95
2024/03/18 09:42:26;;;;;;;9.13;6.57;;;;;;;;;;4962124;28;20073;-92
2024/03/18 09:44:52;;;;;;;7.15;5.55;;;;;;;;;;4957370;28;20062;-94
2024/03/18 09:47:23;;;;;;;8.25;5.10;;;;;;;;;;4961307;28;20480;-96
2024/03/18 09:49:55;;;;;;;7.65;5.90;;;;;;;;;;4977452;28;20276;-94
2024/03/18 09:52:21;;;;;;;9.98;6.65;;;;;;;;;;4945092;28;20027;-94
2024/03/18 09:54:51;;;;;;;9.07;5.82;;;;;;;;;;4954181;29;20031;-94
2024/03/18 09:57:26;;;;;;;8.48;6.70;;;;;;;;;;4957990;28;20039;-92
2024/03/18 09:59:53;;;;;;;8.98;7.32;;;;;;;;;;4960795;28;20034;-94
2024/03/18 10:02:19;;;;;;;11.15;7.70;;;;;;;;;;4945427;28;20037;-95
2024/03/18 10:04:46;;;;;;;10.68;7.03;;;;;;;;;;5032246;23;20062;-90
2024/03/18 10:07:24;;;;;;;10.40;7.28;;;;;;;;;;5009651;28;20033;-92
2024/03/18 10:12:58;;;;;;;9.98;7.97;;;;;;;;;;4978917;28;20057;-94
2024/03/18 10:15:24;;;;;;;10.25;7.10;;;;;;;;;;4978235;28;20083;-93
2024/03/18 10:17:54;;;;;;;10.82;9.52;;;;;;;;;;4978030;28;20049;-95
2024/03/18 10:20:24;;;;;;;10.98;9.38;;;;;;;;;;4977634;28;20026;-93
2024/03/18 10:22:54;;;;;;;11.60;10.45;;;;;;;;;;4968097;28;20464;-93
2024/03/18 10:25:21;;;;;;;11.25;10.07;;;;;;;;;;4983024;28;20034;-92
2024/03/18 10:27:55;;;;;;;11.13;9.68;;;;;;;;;;4979219;28;20057;-93
2024/03/18 10:30:24;;;;;;;11.65;9.75;;;;;;;;;;4961284;28;20113;-94
2024/03/18 10:32:54;;;;;;;12.15;10.85;;;;;;;;;;5012420;28;20101;-93
2024/03/18 10:35:32;;;;;;;14.27;12.95;;;;;;;;;;5000783;28;20026;-91
2024/03/18 10:38:24;;;;;;;14.77;13.38;;;;;;;;;;4981273;28;20066;-90
2024/03/18 10:40:52;;;;;;;20.30;18.70;;;;;;;;;;5003571;28;20014;-90
2024/03/18 10:43:26;;;;;;;21.13;19.60;;;;;;;;;;5004473;28;20037;-92
2024/03/18 10:45:54;;;;;;;24.10;22.40;;;;;;;;;;4979227;28;20027;-93
2024/03/18 10:48:21;;;;;;;25.00;22.88;;;;;;;;;;4978999;28;20034;-93
2024/03/18 10:50:47;;;;;;;23.40;21.70;;;;;;;;;;4993931;28;20098;-91
2024/03/18 10:53:25;;;;;;;21.70;20.08;;;;;;;;;;4998589;28;20096;-92
2024/03/18 10:55:55;;;;;;;23.38;21.45;;;;;;;;;;4998674;28;20049;-90
2024/03/18 10:58:28;;;;;;;23.75;21.73;;;;;;;;;;4998303;28;20053;-92
2024/03/18 11:00:54;;;;;;;;;;;;;;;;;;4984082;28;20053;-91
2024/03/18 11:03:21;;;;;;;26.95;24.90;;;;;;;;;;4980321;28;20248;-91
2024/03/18 11:05:48;;;;;;;22.48;20.67;;;;;;;;;;4997990;28;20053;-91
2024/03/18 11:08:17;;;;;;;24.35;22.65;;;;;;;;;;4999564;28;20026;-90
2024/03/18 11:10:46;;;;;;;25.70;23.80;;;;;;;;;;4988839;28;20498;-92
2024/03/18 11:13:19;;;;;;;28.42;26.42;;;;;;;;;;4998617;28;20038;-90
2024/03/18 11:15:48;;;;;;;23.83;22.08;;;;;;;;;;4997719;28;20091;-90
2024/03/18 11:18:17;;;;;;;25.38;23.58;;;;;;;;;;4998276;28;20030;-92
2024/03/18 11:20:48;;;;;;;24.30;22.48;;;;;;;;;;4998017;28;20053;-92
2024/03/18 11:23:18;;;;;;;22.42;20.83;;;;;;;;;;4991539;28;20035;-91
2024/03/18 11:25:44;;;;;;;26.33;24.55;;;;;;;;;;4978325;28;20026;-91
2024/03/18 11:28:10;;;;;;;27.70;25.83;;;;;;;;;;4978724;28;20034;-92
2024/03/18 11:30:37;;;;;;;25.08;23.02;;;;;;;;;;4978382;28;20069;-92
2024/03/18 11:33:11;;;;;;;25.60;23.80;;;;;;;;;;4978247;28;20023;-92
2024/03/18 11:35:45;;;;;;;27.15;25.17;;;;;;;;;;4976195;28;20049;-92
2024/03/18 11:38:16;;;;;;;26.65;24.52;;;;;;;;;;4975764;28;20534;-92
2024/03/18 11:40:59;;;;;;;24.40;22.80;;;;;;;;;;4977802;28;20530;-94
2024/03/18 11:43:35;;;;;;;24.15;22.35;;;;;;;;;;4974787;28;20122;-92
2024/03/18 11:46:02;;;;;;;27.95;25.98;;;;;;;;;;4987858;28;20434;-94
2024/03/18 11:48:30;;;;;;;28.05;26.08;;;;;;;;;;4997773;28;20057;-93
2024/03/18 11:50:58;;;;;;;25.85;24.05;;;;;;;;;;5015445;28;20061;-92
2024/03/18 11:53:24;;;;;;;23.85;21.98;;;;;;;;;;4985966;28;20041;-92
2024/03/18 11:55:55;;;;;;;26.08;24.25;;;;;;;;;;4978226;28;20620;-93
2024/03/18 11:58:22;;;;;;;27.08;25.23;;;;;;;;;;4978235;28;20069;-92
2024/03/18 12:00:49;;;;;;;26.70;24.80;;;;;;;;;;4978939;28;20088;-93
2024/03/18 12:03:21;;;;;;;24.80;23.10;;;;;;;;;;4978191;28;20026;-93
2024/03/18 12:05:48;;;;;;;22.27;20.88;;;;;;;;;;4977532;28;20091;-93
2024/03/18 12:08:19;;;;;;;26.60;24.67;;;;;;;;;;4978396;28;20080;-91
2024/03/18 12:10:48;;;;;;;25.23;23.38;;;;;;;;;;4978784;28;20030;-92
2024/03/18 12:13:18;;;;;;;21.90;20.30;;;;;;;;;;4978336;28;20498;-91
2024/03/18 12:15:45;;;;;;;21.27;19.42;;;;;;;;;;4978072;28;20402;-93
2024/03/18 12:18:11;;;;;;;23.58;22.08;;;;;;;;;;4977925;28;20036;-90
2024/03/18 12:20:37;;;;;;;23.83;22.23;;;;;;;;;;4978459;28;20030;-93
2024/03/18 12:28:31;;;;;;;24.58;22.88;;;;;;;;;;4995823;28;20037;-92
2024/03/18 12:28:48;;;;;;;19.98;18.73;;;;;;;;;;4979944;28;20037;-94
2024/03/18 12:31:17;;;;;;;23.02;21.60;;;;;;;;;;4977008;28;20033;-91
2024/03/18 12:33:44;;;;;;;25.75;24.15;;;;;;;;;;4997319;28;20018;-92
2024/03/18 12:36:14;;;;;;;26.38;24.55;;;;;;;;;;4996846;28;20033;-92
2024/03/18 12:38:42;;;;;;;28.30;26.50;;;;;;;;;;4997215;28;20060;-92
2024/03/18 12:41:28;;;;;;;;;;;;;;;;;;;;;
2024/03/18 12:44:07;;;;;;;26.63;25.00;;;;;;;;;;4980679;28;20085;-96
2024/03/18 12:47:16;;;;;;;;;;;;;;;;;;;;;
2024/03/18 12:50:05;;;;;;;25.85;24.25;;;;;;;;;;4888431;29;20403;-94
2024/03/18 12:52:31;;;;;;;24.70;23.10;;;;;;;;;;4952301;29;20035;-91
2024/03/18 12:54:57;;;;;;;23.17;21.55;;;;;;;;;;4940339;29;20118;-93
2024/03/18 12:57:23;;;;;;;25.20;23.60;;;;;;;;;;4942708;29;20496;-93
2024/03/18 12:59:50;;;;;;;27.52;25.70;;;;;;;;;;4949746;29;20436;-95
2024/03/18 13:02:16;;;;;;;22.58;21.00;;;;;;;;;;4938010;28;20036;-93
2024/03/18 13:04:46;;;;;;;23.42;21.90;;;;;;;;;;4967170;28;20043;-91
2024/03/18 13:07:13;;;;;;;22.48;21.02;;;;;;;;;;4949758;29;20122;-94
2024/03/18 13:09:46;;;;;;;21.23;19.73;;;;;;;;;;4946371;29;20031;-96
2024/03/18 13:12:12;;;;;;;;;;;;;;;;;;4944814;29;20024;-93
2024/03/18 13:14:44;;;;;;;19.95;18.65;;;;;;;;;;4944173;28;20330;-90
2024/03/18 13:17:13;;;;;;;22.15;20.60;;;;;;;;;;4960279;28;20089;-94
2024/03/18 13:19:40;;;;;;;22.98;21.27;;;;;;;;;;4960488;28;20081;-90
2024/03/18 13:22:06;;;;;;;24.38;22.58;;;;;;;;;;4960600;28;20106;-91
2024/03/18 13:24:54;;;;;;;23.05;21.25;;;;;;;;;;4961302;28;20023;-89
2024/03/18 13:27:23;;;;;;;23.08;21.27;;;;;;;;;;4962128;28;20098;-91
2024/03/18 13:29:59;;;;;;;20.48;19.08;;;;;;;;;;4961482;28;20049;-91
2024/03/18 13:32:25;;;;;;;29.33;26.30;;;;;;;;;;4961838;28;20484;-92
2024/03/18 13:34:55;;;;;;;20.85;19.35;;;;;;;;;;4960380;28;20033;-92
2024/03/18 13:37:22;;;;;;;20.40;19.00;;;;;;;;;;4960404;28;20038;-94
2024/03/18 13:39:49;;;;;;;20.58;18.85;;;;;;;;;;4985741;28;20033;-90
2024/03/18 13:42:15;;;;;;;17.70;16.40;;;;;;;;;;4987484;28;20026;-94
2024/03/18 13:44:45;;;;;;;24.90;23.13;;;;;;;;;;4979968;28;20030;-93
2024/03/18 13:47:13;;;;;;;21.08;19.45;;;;;;;;;;4979900;28;20030;-92
2024/03/18 13:49:40;;;;;;;19.25;17.83;;;;;;;;;;4980438;28;20034;-92
2024/03/18 13:52:07;;;;;;;24.55;22.60;;;;;;;;;;4980467;28;20050;-94
2024/03/18 13:54:34;;;;;;;19.45;17.95;;;;;;;;;;4978810;28;20043;-92
2024/03/18 13:57:03;;;;;;;22.00;20.17;;;;;;;;;;4976772;28;20061;-91
2024/03/18 13:59:35;;;;;;;22.98;21.30;;;;;;;;;;4980394;28;20107;-96
2024/03/18 14:02:10;;;;;;;21.73;20.08;;;;;;;;;;5017240;23;20065;-95
2024/03/18 14:04:59;;;;;;;20.80;19.15;;;;;;;;;;4998617;28;20018;-95
2024/03/18 14:13:15;;;;;;;23.40;21.70;;;;;;;;;;5589747;23;20061;-95
2024/03/18 14:18:17;;;;;;;25.63;23.88;;;;;;;;;;5211044;23;20081;-96
2024/03/18 14:20:43;;;;;;;20.55;18.95;;;;;;;;;;5001278;28;20088;-96
2024/03/18 14:23:09;;;;;;;19.73;18.25;;;;;;;;;;5007555;28;20029;-94
2024/03/18 14:28:48;;;;;;;19.77;18.30;;;;;;;;;;5007901;23;20050;-96
2024/03/18 14:32:04;;;;;;;20.83;19.23;;;;;;;;;;4983922;28;20077;-95
2024/03/18 14:37:08;;;;;;;23.13;21.50;;;;;;;;;;5463008;23;20100;-92
2024/03/18 14:44:51;;;;;;;18.92;17.42;;;;;;;;;;4986353;28;20050;-96
2024/03/18 14:50:51;;;;;;;21.23;19.67;;;;;;;;;;4869989;29;20029;-93
2024/03/18 14:56:07;;;;;;;23.20;21.20;;;;;;;;;;4861729;29;20101;-93
2024/03/18 14:58:34;;;;;;;20.83;19.35;;;;;;;;;;4878680;29;20498;-94
2024/03/18 15:01:37;;;;;;;23.35;21.50;;;;;;;;;;4878980;29;20456;-96
2024/03/18 15:04:03;;;;;;;24.10;22.45;;;;;;;;;;4870489;28;20033;-95
2024/03/18 15:06:30;;;;;;;26.05;24.23;;;;;;;;;;4961673;28;20558;-95
2024/03/18 15:08:59;;;;;;;18.80;17.40;;;;;;;;;;4946034;28;20034;-92
2024/03/18 15:11:47;;;;;;;22.60;21.00;;;;;;;;;;4949143;29;20031;-89
2024/03/18 15:14:22;;;;;;;31.13;28.98;;;;;;;;;;4858785;28;20049;-90
2024/03/18 15:16:51;;;;;;;19.00;17.40;;;;;;;;;;4960326;28;20145;-90
2024/03/18 15:19:17;;;;;;;19.02;17.63;;;;;;;;;;4960457;28;20069;-89
2024/03/18 15:21:46;;;;;;;20.05;18.25;;;;;;;;;;4960208;28;20034;-89
2024/03/18 15:24:27;;;;;;;20.33;18.63;;;;;;;;;;4947886;29;20027;-89
2024/03/18 15:29:41;;;;;;;16.23;14.75;;;;;;;;;;4938003;29;20078;-90